sensor_id;sensor_type;location;lat;lon;timestamp;P1;durP1;ratioP1;P2;durP2;ratioP2
18267;SDS011;9260;49.998;19.880;2023-02-15T00:08:51;247.37;;;114.27;;
18267;SDS011;9260;49.998;19.880;2023-02-15T00:18:58;253.40;;;120.03;;
18267;SDS011;9260;49.998;19.880;2023-02-15T00:29:03;250.57;;;119.60;;
18267;SDS011;9260;49.998;19.880;2023-02-15T00:39:08;255.07;;;119.47;;
18267;SDS011;9260;49.998;19.880;2023-02-15T00:49:13;240.07;;;114.17;;
18267;SDS011;9260;49.998;19.880;2023-02-15T00:59:18;237.27;;;108.67;;
18267;SDS011;9260;49.998;19.880;2023-02-15T01:09:22;228.87;;;106.80;;
18267;SDS011;9260;49.998;19.880;2023-02-15T01:19:27;243.50;;;111.77;;
18267;SDS011;9260;49.998;19.880;2023-02-15T01:29:31;246.00;;;115.33;;
18267;SDS011;9260;49.998;19.880;2023-02-15T01:39:36;226.30;;;104.90;;
18267;SDS011;9260;49.998;19.880;2023-02-15T01:49:40;221.23;;;103.60;;
18267;SDS011;9260;49.998;19.880;2023-02-15T01:59:48;220.57;;;102.77;;
18267;SDS011;9260;49.998;19.880;2023-02-15T02:09:55;225.57;;;104.27;;
18267;SDS011;9260;49.998;19.880;2023-02-15T02:30:46;222.63;;;100.20;;
18267;SDS011;9260;49.998;19.880;2023-02-15T02:41:23;221.33;;;102.63;;
18267;SDS011;9260;49.998;19.880;2023-02-15T02:51:35;216.27;;;98.50;;
18267;SDS011;9260;49.998;19.880;2023-02-15T03:01:42;221.97;;;102.73;;
18267;SDS011;9260;49.998;19.880;2023-02-15T03:11:49;218.93;;;97.97;;
18267;SDS011;9260;49.998;19.880;2023-02-15T03:21:59;220.70;;;101.97;;
18267;SDS011;9260;49.998;19.880;2023-02-15T03:32:11;216.43;;;100.03;;
18267;SDS011;9260;49.998;19.880;2023-02-15T03:42:19;215.27;;;100.57;;
18267;SDS011;9260;49.998;19.880;2023-02-15T03:52:29;210.93;;;98.13;;
18267;SDS011;9260;49.998;19.880;2023-02-15T04:02:38;216.20;;;98.00;;
18267;SDS011;9260;49.998;19.880;2023-02-15T04:12:50;215.80;;;95.87;;
18267;SDS011;9260;49.998;19.880;2023-02-15T04:22:55;209.60;;;97.17;;
18267;SDS011;9260;49.998;19.880;2023-02-15T04:33:17;216.73;;;100.37;;
18267;SDS011;9260;49.998;19.880;2023-02-15T04:43:22;216.87;;;98.80;;
18267;SDS011;9260;49.998;19.880;2023-02-15T04:53:26;211.57;;;98.40;;
18267;SDS011;9260;49.998;19.880;2023-02-15T05:03:31;218.70;;;100.73;;
18267;SDS011;9260;49.998;19.880;2023-02-15T05:13:35;206.83;;;96.30;;
18267;SDS011;9260;49.998;19.880;2023-02-15T05:23:40;214.77;;;100.90;;
18267;SDS011;9260;49.998;19.880;2023-02-15T05:33:44;216.20;;;98.83;;
18267;SDS011;9260;49.998;19.880;2023-02-15T05:43:50;217.30;;;100.30;;
18267;SDS011;9260;49.998;19.880;2023-02-15T05:53:53;217.57;;;101.60;;
18267;SDS011;9260;49.998;19.880;2023-02-15T06:03:59;219.97;;;101.10;;
18267;SDS011;9260;49.998;19.880;2023-02-15T06:14:03;217.70;;;98.73;;
18267;SDS011;9260;49.998;19.880;2023-02-15T06:24:08;213.37;;;102.13;;
18267;SDS011;9260;49.998;19.880;2023-02-15T06:34:12;219.90;;;102.23;;
18267;SDS011;9260;49.998;19.880;2023-02-15T06:44:18;214.77;;;96.90;;
18267;SDS011;9260;49.998;19.880;2023-02-15T06:54:21;207.13;;;97.53;;
18267;SDS011;9260;49.998;19.880;2023-02-15T07:04:27;216.30;;;102.40;;
18267;SDS011;9260;49.998;19.880;2023-02-15T07:14:31;220.83;;;116.37;;
18267;SDS011;9260;49.998;19.880;2023-02-15T07:24:36;222.50;;;104.77;;
18267;SDS011;9260;49.998;19.880;2023-02-15T07:34:40;221.70;;;105.87;;
18267;SDS011;9260;49.998;19.880;2023-02-15T07:44:45;208.67;;;99.73;;
18267;SDS011;9260;49.998;19.880;2023-02-15T07:54:49;210.17;;;98.77;;
18267;SDS011;9260;49.998;19.880;2023-02-15T08:04:55;219.87;;;103.07;;
18267;SDS011;9260;49.998;19.880;2023-02-15T08:14:58;217.83;;;101.70;;
18267;SDS011;9260;49.998;19.880;2023-02-15T08:25:04;228.97;;;109.20;;
18267;SDS011;9260;49.998;19.880;2023-02-15T08:35:08;233.30;;;108.23;;
18267;SDS011;9260;49.998;19.880;2023-02-15T08:45:13;235.90;;;113.37;;
18267;SDS011;9260;49.998;19.880;2023-02-15T08:55:16;237.30;;;118.30;;
18267;SDS011;9260;49.998;19.880;2023-02-15T09:05:21;237.90;;;118.83;;
18267;SDS011;9260;49.998;19.880;2023-02-15T09:15:25;234.67;;;122.73;;
18267;SDS011;9260;49.998;19.880;2023-02-15T09:25:30;232.83;;;122.53;;
18267;SDS011;9260;49.998;19.880;2023-02-15T09:35:34;232.23;;;125.87;;
18267;SDS011;9260;49.998;19.880;2023-02-15T09:45:49;229.67;;;126.77;;
18267;SDS011;9260;49.998;19.880;2023-02-15T09:56:24;239.33;;;139.93;;
18267;SDS011;9260;49.998;19.880;2023-02-15T10:06:41;236.90;;;134.70;;
18267;SDS011;9260;49.998;19.880;2023-02-15T10:16:53;235.32;;;140.75;;
18267;SDS011;9260;49.998;19.880;2023-02-15T10:27:07;240.45;;;153.20;;
18267;SDS011;9260;49.998;19.880;2023-02-15T10:37:29;232.48;;;144.27;;
18267;SDS011;9260;49.998;19.880;2023-02-15T10:47:55;242.15;;;160.88;;
18267;SDS011;9260;49.998;19.880;2023-02-15T10:58:16;236.88;;;153.73;;
18267;SDS011;9260;49.998;19.880;2023-02-15T11:08:40;231.63;;;152.50;;
18267;SDS011;9260;49.998;19.880;2023-02-15T11:18:48;238.43;;;163.75;;
18267;SDS011;9260;49.998;19.880;2023-02-15T11:29:00;229.65;;;159.85;;
18267;SDS011;9260;49.998;19.880;2023-02-15T11:39:15;235.55;;;169.20;;
18267;SDS011;9260;49.998;19.880;2023-02-15T11:49:37;225.73;;;156.05;;
18267;SDS011;9260;49.998;19.880;2023-02-15T11:59:43;232.10;;;168.93;;
18267;SDS011;9260;49.998;19.880;2023-02-15T12:09:59;224.70;;;160.63;;
18267;SDS011;9260;49.998;19.880;2023-02-15T12:20:21;228.50;;;167.73;;
18267;SDS011;9260;49.998;19.880;2023-02-15T12:30:34;213.77;;;149.75;;
18267;SDS011;9260;49.998;19.880;2023-02-15T12:40:39;219.27;;;155.63;;
18267;SDS011;9260;49.998;19.880;2023-02-15T12:50:46;227.32;;;166.18;;
18267;SDS011;9260;49.998;19.880;2023-02-15T13:01:03;227.35;;;162.15;;
18267;SDS011;9260;49.998;19.880;2023-02-15T13:11:19;226.00;;;160.38;;
18267;SDS011;9260;49.998;19.880;2023-02-15T13:21:32;227.13;;;156.85;;
18267;SDS011;9260;49.998;19.880;2023-02-15T13:31:41;231.77;;;166.15;;
18267;SDS011;9260;49.998;19.880;2023-02-15T13:41:49;226.13;;;158.38;;
18267;SDS011;9260;49.998;19.880;2023-02-15T13:52:04;237.75;;;176.10;;
18267;SDS011;9260;49.998;19.880;2023-02-15T14:02:28;238.18;;;167.52;;
18267;SDS011;9260;49.998;19.880;2023-02-15T14:13:19;235.55;;;158.43;;
18267;SDS011;9260;49.998;19.880;2023-02-15T14:23:57;241.25;;;165.80;;
18267;SDS011;9260;49.998;19.880;2023-02-15T14:34:19;240.85;;;152.57;;
18267;SDS011;9260;49.998;19.880;2023-02-15T14:44:28;245.73;;;156.35;;
18267;SDS011;9260;49.998;19.880;2023-02-15T15:05:45;248.60;;;139.40;;
18267;SDS011;9260;49.998;19.880;2023-02-15T15:15:54;247.30;;;128.13;;
18267;SDS011;9260;49.998;19.880;2023-02-15T15:26:01;254.73;;;128.23;;
18267;SDS011;9260;49.998;19.880;2023-02-15T15:47:50;237.80;;;107.93;;
18267;SDS011;9260;49.998;19.880;2023-02-15T15:58:09;248.43;;;114.37;;
18267;SDS011;9260;49.998;19.880;2023-02-15T16:08:25;240.33;;;109.00;;
18267;SDS011;9260;49.998;19.880;2023-02-15T16:18:32;240.30;;;104.87;;
18267;SDS011;9260;49.998;19.880;2023-02-15T16:28:40;241.87;;;111.33;;
18267;SDS011;9260;49.998;19.880;2023-02-15T16:39:09;240.27;;;109.73;;
18267;SDS011;9260;49.998;19.880;2023-02-15T16:49:21;245.63;;;113.77;;
18267;SDS011;9260;49.998;19.880;2023-02-15T16:59:31;235.70;;;104.33;;
18267;SDS011;9260;49.998;19.880;2023-02-15T17:09:39;233.77;;;102.80;;
18267;SDS011;9260;49.998;19.880;2023-02-15T17:19:54;240.40;;;117.23;;
18267;SDS011;9260;49.998;19.880;2023-02-15T17:29:58;238.23;;;102.23;;
18267;SDS011;9260;49.998;19.880;2023-02-15T17:40:13;235.07;;;104.67;;
18267;SDS011;9260;49.998;19.880;2023-02-15T17:50:24;230.23;;;102.47;;
18267;SDS011;9260;49.998;19.880;2023-02-15T18:00:31;227.30;;;101.70;;
18267;SDS011;9260;49.998;19.880;2023-02-15T18:10:58;224.63;;;101.20;;
18267;SDS011;9260;49.998;19.880;2023-02-15T18:21:22;224.27;;;100.93;;
18267;SDS011;9260;49.998;19.880;2023-02-15T18:31:26;230.87;;;98.73;;
18267;SDS011;9260;49.998;19.880;2023-02-15T18:41:32;237.50;;;102.77;;
18267;SDS011;9260;49.998;19.880;2023-02-15T18:51:35;231.33;;;100.90;;
18267;SDS011;9260;49.998;19.880;2023-02-15T19:01:42;232.30;;;99.63;;
18267;SDS011;9260;49.998;19.880;2023-02-15T19:11:47;221.13;;;95.70;;
18267;SDS011;9260;49.998;19.880;2023-02-15T19:21:54;234.40;;;105.23;;
18267;SDS011;9260;49.998;19.880;2023-02-15T19:31:58;240.87;;;116.10;;
18267;SDS011;9260;49.998;19.880;2023-02-15T19:42:04;242.37;;;114.97;;
18267;SDS011;9260;49.998;19.880;2023-02-15T19:52:11;241.97;;;109.57;;
18267;SDS011;9260;49.998;19.880;2023-02-15T20:02:21;250.00;;;115.07;;
18267;SDS011;9260;49.998;19.880;2023-02-15T20:12:25;251.97;;;118.73;;
18267;SDS011;9260;49.998;19.880;2023-02-15T20:22:31;251.97;;;112.97;;
18267;SDS011;9260;49.998;19.880;2023-02-15T20:32:35;250.60;;;111.23;;
18267;SDS011;9260;49.998;19.880;2023-02-15T20:42:40;250.47;;;115.63;;
18267;SDS011;9260;49.998;19.880;2023-02-15T20:52:45;240.20;;;114.53;;
18267;SDS011;9260;49.998;19.880;2023-02-15T21:02:53;253.80;;;117.10;;
18267;SDS011;9260;49.998;19.880;2023-02-15T21:13:00;237.40;;;108.90;;
18267;SDS011;9260;49.998;19.880;2023-02-15T21:23:06;272.17;;;122.47;;
18267;SDS011;9260;49.998;19.880;2023-02-15T21:33:16;273.77;;;123.63;;
18267;SDS011;9260;49.998;19.880;2023-02-15T21:43:22;293.50;;;129.73;;
18267;SDS011;9260;49.998;19.880;2023-02-15T21:53:44;293.43;;;132.63;;
18267;SDS011;9260;49.998;19.880;2023-02-15T22:03:50;266.13;;;117.90;;
18267;SDS011;9260;49.998;19.880;2023-02-15T22:13:55;252.03;;;112.83;;
18267;SDS011;9260;49.998;19.880;2023-02-15T22:24:00;286.17;;;128.70;;
18267;SDS011;9260;49.998;19.880;2023-02-15T22:34:04;311.27;;;139.93;;
18267;SDS011;9260;49.998;19.880;2023-02-15T22:44:09;317.00;;;143.17;;
18267;SDS011;9260;49.998;19.880;2023-02-15T22:54:14;306.63;;;140.53;;
18267;SDS011;9260;49.998;19.880;2023-02-15T23:04:21;308.17;;;140.53;;
18267;SDS011;9260;49.998;19.880;2023-02-15T23:14:30;304.10;;;139.03;;
18267;SDS011;9260;49.998;19.880;2023-02-15T23:24:38;301.33;;;135.57;;
18267;SDS011;9260;49.998;19.880;2023-02-15T23:34:43;293.93;;;133.83;;
18267;SDS011;9260;49.998;19.880;2023-02-15T23:44:48;292.77;;;134.80;;
18267;SDS011;9260;49.998;19.880;2023-02-15T23:54:52;302.87;;;135.80;;
